Sovereign — 9HUE9 — position and weather

sailwx.info

Track history (hours):
 
Tides and Currents Weather Stations Pressure Air Temp Water Temp Dewpoint Dewpoint Depression Visibility Wind Speed Wind Dir Waves Ship Positions

Sovereign

Last reported at 2015-Jul-04 13:23 UTC. Time now 2015-Jul-04 13:43 UTC.
Position N 41°22' E 002°11'.

Length 268 m; draft 7.8 m.

Type: Passenger vessel. MMSI: 249539000.

Date/timePositionNaut miles runAvg speedWind from/ knotsBaromVisibWave heightAir tempDewpointWater temp
2015-Jul-04 13:23N 41°22' E 002°11'0 0.0
2015-Jul-04 12:23N 41°22' E 002°11'0 0.0
2015-Jul-04 10:29N 41°22' E 002°11'0 0.0
2015-Jul-04 09:29N 41°22' E 002°11'0 0.0
2015-Jul-04 08:29N 41°22' E 002°11'0 0.0
2015-Jul-04 07:29N 41°22' E 002°11'0 0.3
2015-Jul-04 06:33N 41°21' E 002°11'20 9.3
2015-Jul-04 04:26N 41°25' E 002°37'1415.8
2015-Jul-04 03:31N 41°31' E 002°54'1515.3
2015-Jul-04 02:34N 41°38' E 003°11'1515.3
2015-Jul-04 01:33N 41°45' E 003°30'1615.7
2015-Jul-04 00:33N 41°52' E 003°48'1515.3
2015-Jul-03 23:33N 41°60' E 004°06'1717.0
2015-Jul-03 22:33N 42°07' E 004°26'1716.9
2015-Jul-03 21:33N 42°15' E 004°46'1717.1
2015-Jul-03 20:33N 42°23' E 005°07'1716.9
2015-Jul-03 19:33N 42°31' E 005°27'1716.8
2015-Jul-03 18:33N 42°39' E 005°47'1717.4
2015-Jul-03 17:33N 42°47' E 006°09'1717.4
2015-Jul-03 16:33N 42°55' E 006°29'1717.3
2015-Jul-03 15:33N 43°08' E 006°45'1817.6
2015-Jul-03 14:33N 43°21' E 007°01'1717.4
2015-Jul-03 13:33N 43°35' E 007°16'7 6.9
2015-Jul-03 12:30N 43°42' E 007°19'0 0.0
2015-Jul-03 11:15N 43°42' E 007°19'0 0.0
2015-Jul-03 10:27N 43°42' E 007°19'0 0.0
2015-Jul-03 09:33N 43°42' E 007°19'0 0.0
2015-Jul-03 04:31N 43°42' E 007°19'8 7.9
2015-Jul-03 03:30N 43°39' E 007°30'1212.4
2015-Jul-03 02:32N 43°38' E 007°46'1313.4
2015-Jul-03 01:33N 43°38' E 008°04'1313.3
2015-Jul-03 00:33N 43°37' E 008°23'1313.5
2015-Jul-02 23:33N 43°36' E 008°41'1313.0
2015-Jul-02 22:33N 43°36' E 008°59'1313.3
2015-Jul-02 21:33N 43°35' E 009°17'1313.0
2015-Jul-02 20:33N 43°33' E 009°35'1312.8
2015-Jul-02 19:33N 43°32' E 009°53'1312.5
2015-Jul-02 18:33N 43°31' E 010°10'6 5.9
2015-Jul-02 17:29N 43°34' E 010°18'0 0.0
2015-Jul-02 16:32N 43°34' E 010°18'0 0.0
2015-Jul-02 15:29N 43°34' E 010°18'0 0.0
2015-Jul-02 14:29N 43°34' E 010°18'0 0.0
2015-Jul-02 13:32N 43°34' E 010°18'0 0.0
2015-Jul-02 12:32N 43°34' E 010°18'0 0.0
2015-Jul-02 11:29N 43°34' E 010°18'0 0.0
2015-Jul-02 10:32N 43°34' E 010°18'0 0.0
2015-Jul-02 09:32N 43°34' E 010°18'0 0.0
2015-Jul-02 08:32N 43°34' E 010°18'0 0.0
2015-Jul-02 07:32N 43°34' E 010°18'0 0.0
2015-Jul-02 06:32N 43°34' E 010°18'0 0.0
2015-Jul-02 05:32N 43°34' E 010°18'4 4.0
2015-Jul-02 04:33N 43°31' E 010°14'1313.2
2015-Jul-02 03:34N 43°18' E 010°09'1515.3
2015-Jul-02 02:34N 43°03' E 010°09'1515.1
2015-Jul-02 01:34N 42°49' E 009°59'2214.9
2015-Jul-02 00:05N 42°32' E 010°18'915.3
2015-Jul-01 23:28N 42°24' E 010°25'3215.1
2015-Jul-01 21:20N 42°03' E 010°57'1215.2
2015-Jul-01 20:34N 42°01' E 011°13'1616.1
2015-Jul-01 19:33N 42°04' E 011°34'10 9.1
2015-Jul-01 18:31N 42°05' E 011°47'0 0.0
2015-Jul-01 17:31N 42°05' E 011°47'0 0.0
2015-Jul-01 12:19N 42°05' E 011°47'0 0.0
2015-Jul-01 10:22N 42°05' E 011°47'0 0.0
2015-Jul-01 09:25N 42°05' E 011°47'0 0.0
2015-Jul-01 08:28N 42°05' E 011°47'0 0.0
2015-Jul-01 07:28N 42°05' E 011°47'0 0.2
2015-Jul-01 05:32N 42°06' E 011°47'5 4.4
2015-Jul-01 04:19N 42°02' E 011°42'1414.8
2015-Jul-01 03:23N 41°48' E 011°48'1214.7
2015-Jul-01 02:33N 41°38' E 011°56'1515.3
2015-Jul-01 01:33N 41°27' E 012°11'1515.2
2015-Jul-01 00:33N 41°17' E 012°26'1514.9
2015-Jun-30 23:34N 41°10' E 012°43'1515.1
2015-Jun-30 22:33N 41°04' E 013°02'1515.0
2015-Jun-30 21:33N 40°57' E 013°19'1515.0
2015-Jun-30 20:33N 40°48' E 013°35'1514.6
2015-Jun-30 19:33N 40°38' E 013°49'1414.0
2015-Jun-30 18:33N 40°39' E 014°07'1312.8
2015-Jun-30 17:32N 40°50' E 014°16'0 0.0
2015-Jun-30 06:30N 40°50' E 014°16'6 6.0
2015-Jun-30 05:33N 40°45' E 014°13'1313.5
2015-Jun-30 04:33N 40°38' E 013°58'1615.1
2015-Jun-30 03:31N 40°39' E 013°37'1615.1
2015-Jun-30 02:28N 40°40' E 013°16'1414.9
2015-Jun-30 01:32N 40°42' E 012°58'1514.8
2015-Jun-30 00:32N 40°43' E 012°39'1515.1
2015-Jun-29 23:34N 40°45' E 012°19'1515.4
2015-Jun-29 22:33N 40°47' E 011°59'3715.6
2015-Jun-29 20:09N 40°51' E 011°10'3115.7
2015-Jun-29 18:12N 40°54' E 010°30'1015.8
2015-Jun-29 17:33N 40°55' E 010°16'1615.8
2015-Jun-29 16:33N 40°57' E 009°55'1514.7
2015-Jun-29 15:32N 40°56' E 009°36'3 3.1
2015-Jun-29 14:32N 40°55' E 009°32'0 0.0
2015-Jun-29 13:32N 40°55' E 009°32'0 0.0
2015-Jun-29 12:29N 40°55' E 009°32'0 0.0
2015-Jun-29 11:32N 40°55' E 009°32'0 0.0
2015-Jun-29 10:32N 40°55' E 009°32'0 0.0
2015-Jun-29 09:32N 40°55' E 009°31'0 0.1
2015-Jun-29 06:23N 40°55' E 009°32'25 5.2
2015-Jun-29 01:33N 41°20' E 009°41'18 7.6
2015-Jun-28 23:14N 41°19' E 009°18'5 7.5
2015-Jun-28 22:33N 41°17' E 009°11'8 7.9
2015-Jun-28 21:33N 41°17' E 009°01'69 8.7
2015-Jun-28 13:33N 41°17' E 007°28'17011.8
2015-Jun-27 23:12N 41°16' E 003°42'913.3
2015-Jun-27 22:31N 41°16' E 003°30'1212.9
2015-Jun-27 21:33N 41°16' E 003°14'1412.6
2015-Jun-27 20:29N 41°16' E 002°56'1212.6
2015-Jun-27 19:32N 41°16' E 002°40'1212.6
2015-Jun-27 18:33N 41°16' E 002°23'11 9.6
2015-Jun-27 17:27N 41°19' E 002°10'2 2.4
2015-Jun-27 16:30N 41°22' E 002°11'0 0.0
2015-Jun-27 13:30N 41°22' E 002°11'0 0.0
2015-Jun-27 11:33N 41°22' E 002°11'0 0.0
2015-Jun-27 10:18N 41°22' E 002°11'0 0.0
2015-Jun-27 09:33N 41°22' E 002°11'0 0.0
2015-Jun-27 08:30N 41°22' E 002°11'0 0.0
2015-Jun-27 07:30N 41°22' E 002°11'0 0.1
2015-Jun-27 06:33N 41°22' E 002°11'7 7.0
2015-Jun-27 05:33N 41°17' E 002°18'1414.6
2015-Jun-27 04:33N 41°24' E 002°35'1515.3
2015-Jun-27 03:33N 41°31' E 002°53'1615.0
2015-Jun-27 02:31N 41°38' E 003°12'1515.3
2015-Jun-27 01:33N 41°45' E 003°29'1615.7
2015-Jun-27 00:33N 41°52' E 003°48'1515.1
2015-Jun-26 23:33N 41°59' E 004°06'1514.8
2015-Jun-26 22:33N 42°06' E 004°24'1414.4
2015-Jun-26 21:33N 42°13' E 004°41'1817.6
2015-Jun-26 20:33N 42°21' E 005°02'1817.8
2015-Jun-26 19:33N 42°29' E 005°23'1817.9
2015-Jun-26 18:33N 42°38' E 005°45'1818.4
2015-Jun-26 17:33N 42°46' E 006°07'1918.7
2015-Jun-26 16:33N 42°55' E 006°30'1918.6
2015-Jun-26 15:33N 43°09' E 006°46'1918.4
2015-Jun-26 14:32N 43°23' E 007°04'1818.3
2015-Jun-26 13:33N 43°38' E 007°18'4 2.0
2015-Jun-26 11:25N 43°42' E 007°19'0 0.0
2015-Jun-26 09:08N 43°42' E 007°19'0 0.0
2015-Jun-26 04:33N 43°42' E 007°19'8 8.3
2015-Jun-26 03:31N 43°39' E 007°30'1111.5
2015-Jun-26 02:33N 43°38' E 007°45'1312.7
2015-Jun-26 01:33N 43°38' E 008°03'1312.7
2015-Jun-26 00:32N 43°37' E 008°21'1313.0
2015-Jun-25 23:33N 43°36' E 008°38'1313.4
2015-Jun-25 22:33N 43°35' E 008°57'1312.9
2015-Jun-25 21:33N 43°34' E 009°14'1312.6
2015-Jun-25 20:34N 43°33' E 009°32'1312.7
2015-Jun-25 19:34N 43°33' E 009°49'1312.9
2015-Jun-25 18:33N 43°30' E 010°07'9 8.6
2015-Jun-25 17:32N 43°33' E 010°18'0 0.0
2015-Jun-25 16:32N 43°33' E 010°18'0 0.0
2015-Jun-25 15:32N 43°33' E 010°18'0 0.0
2015-Jun-25 14:32N 43°33' E 010°18'0 0.0
2015-Jun-25 13:32N 43°33' E 010°18'0 0.0
2015-Jun-25 12:32N 43°33' E 010°18'0 0.0
2015-Jun-25 11:29N 43°33' E 010°18'0 0.0
2015-Jun-25 10:32N 43°33' E 010°18'0 0.0
2015-Jun-25 09:32N 43°33' E 010°18'0 0.0
2015-Jun-25 08:32N 43°33' E 010°18'0 0.0
2015-Jun-25 07:29N 43°33' E 010°18'0 0.0
2015-Jun-25 06:32N 43°33' E 010°18'0 0.0
2015-Jun-25 05:34N 43°33' E 010°18'4 4.2
2015-Jun-25 04:34N 43°30' E 010°14'1312.8
2015-Jun-25 03:33N 43°18' E 010°09'1514.2
2015-Jun-25 02:30N 43°03' E 010°09'1314.1
2015-Jun-25 01:33N 42°51' E 010°00'  
Track history (hours):
 
Tides and Currents Weather Stations Pressure Air Temp Water Temp Dewpoint Dewpoint Depression Visibility Wind Speed Wind Dir Waves Ship Positions

Sovereign

Last reported at 2015-Jul-04 13:23 UTC. Time now 2015-Jul-04 13:43 UTC.
Position N 41°22' E 002°11'.

Length 268 m; draft 7.8 m.

Type: Passenger vessel. MMSI: 249539000.

Date/timePositionNaut miles runAvg speedWind from/ knotsBaromVisibWave heightAir tempDewpointWater temp
2015-Jul-04 13:23N 41°22' E 002°11'0 0.0
2015-Jul-04 12:23N 41°22' E 002°11'0 0.0
2015-Jul-04 10:29N 41°22' E 002°11'0 0.0
2015-Jul-04 09:29N 41°22' E 002°11'0 0.0
2015-Jul-04 08:29N 41°22' E 002°11'0 0.0
2015-Jul-04 07:29N 41°22' E 002°11'0 0.3
2015-Jul-04 06:33N 41°21' E 002°11'20 9.3
2015-Jul-04 04:26N 41°25' E 002°37'1415.8
2015-Jul-04 03:31N 41°31' E 002°54'1515.3
2015-Jul-04 02:34N 41°38' E 003°11'1515.3
2015-Jul-04 01:33N 41°45' E 003°30'1615.7
2015-Jul-04 00:33N 41°52' E 003°48'1515.3
2015-Jul-03 23:33N 41°60' E 004°06'1717.0
2015-Jul-03 22:33N 42°07' E 004°26'1716.9
2015-Jul-03 21:33N 42°15' E 004°46'1717.1
2015-Jul-03 20:33N 42°23' E 005°07'1716.9
2015-Jul-03 19:33N 42°31' E 005°27'1716.8
2015-Jul-03 18:33N 42°39' E 005°47'1717.4
2015-Jul-03 17:33N 42°47' E 006°09'1717.4
2015-Jul-03 16:33N 42°55' E 006°29'1717.3
2015-Jul-03 15:33N 43°08' E 006°45'1817.6
2015-Jul-03 14:33N 43°21' E 007°01'1717.4
2015-Jul-03 13:33N 43°35' E 007°16'7 6.9
2015-Jul-03 12:30N 43°42' E 007°19'0 0.0
2015-Jul-03 11:15N 43°42' E 007°19'0 0.0
2015-Jul-03 10:27N 43°42' E 007°19'0 0.0
2015-Jul-03 09:33N 43°42' E 007°19'0 0.0
2015-Jul-03 04:31N 43°42' E 007°19'8 7.9
2015-Jul-03 03:30N 43°39' E 007°30'1212.4
2015-Jul-03 02:32N 43°38' E 007°46'1313.4
2015-Jul-03 01:33N 43°38' E 008°04'1313.3
2015-Jul-03 00:33N 43°37' E 008°23'1313.5
2015-Jul-02 23:33N 43°36' E 008°41'1313.0
2015-Jul-02 22:33N 43°36' E 008°59'1313.3
2015-Jul-02 21:33N 43°35' E 009°17'1313.0
2015-Jul-02 20:33N 43°33' E 009°35'1312.8
2015-Jul-02 19:33N 43°32' E 009°53'1312.5
2015-Jul-02 18:33N 43°31' E 010°10'6 5.9
2015-Jul-02 17:29N 43°34' E 010°18'0 0.0
2015-Jul-02 16:32N 43°34' E 010°18'0 0.0
2015-Jul-02 15:29N 43°34' E 010°18'0 0.0
2015-Jul-02 14:29N 43°34' E 010°18'0 0.0
2015-Jul-02 13:32N 43°34' E 010°18'0 0.0
2015-Jul-02 12:32N 43°34' E 010°18'0 0.0
2015-Jul-02 11:29N 43°34' E 010°18'0 0.0
2015-Jul-02 10:32N 43°34' E 010°18'0 0.0
2015-Jul-02 09:32N 43°34' E 010°18'0 0.0
2015-Jul-02 08:32N 43°34' E 010°18'0 0.0
2015-Jul-02 07:32N 43°34' E 010°18'0 0.0
2015-Jul-02 06:32N 43°34' E 010°18'0 0.0
2015-Jul-02 05:32N 43°34' E 010°18'4 4.0
2015-Jul-02 04:33N 43°31' E 010°14'1313.2
2015-Jul-02 03:34N 43°18' E 010°09'1515.3
2015-Jul-02 02:34N 43°03' E 010°09'1515.1
2015-Jul-02 01:34N 42°49' E 009°59'2214.9
2015-Jul-02 00:05N 42°32' E 010°18'915.3
2015-Jul-01 23:28N 42°24' E 010°25'3215.1
2015-Jul-01 21:20N 42°03' E 010°57'1215.2
2015-Jul-01 20:34N 42°01' E 011°13'1616.1
2015-Jul-01 19:33N 42°04' E 011°34'10 9.1
2015-Jul-01 18:31N 42°05' E 011°47'0 0.0
2015-Jul-01 17:31N 42°05' E 011°47'0 0.0
2015-Jul-01 12:19N 42°05' E 011°47'0 0.0
2015-Jul-01 10:22N 42°05' E 011°47'0 0.0
2015-Jul-01 09:25N 42°05' E 011°47'0 0.0
2015-Jul-01 08:28N 42°05' E 011°47'0 0.0
2015-Jul-01 07:28N 42°05' E 011°47'0 0.2
2015-Jul-01 05:32N 42°06' E 011°47'5 4.4
2015-Jul-01 04:19N 42°02' E 011°42'1414.8
2015-Jul-01 03:23N 41°48' E 011°48'1214.7
2015-Jul-01 02:33N 41°38' E 011°56'1515.3
2015-Jul-01 01:33N 41°27' E 012°11'1515.2
2015-Jul-01 00:33N 41°17' E 012°26'1514.9
2015-Jun-30 23:34N 41°10' E 012°43'1515.1
2015-Jun-30 22:33N 41°04' E 013°02'1515.0
2015-Jun-30 21:33N 40°57' E 013°19'1515.0
2015-Jun-30 20:33N 40°48' E 013°35'1514.6
2015-Jun-30 19:33N 40°38' E 013°49'1414.0
2015-Jun-30 18:33N 40°39' E 014°07'1312.8
2015-Jun-30 17:32N 40°50' E 014°16'0 0.0
2015-Jun-30 06:30N 40°50' E 014°16'6 6.0
2015-Jun-30 05:33N 40°45' E 014°13'1313.5
2015-Jun-30 04:33N 40°38' E 013°58'1615.1
2015-Jun-30 03:31N 40°39' E 013°37'1615.1
2015-Jun-30 02:28N 40°40' E 013°16'1414.9
2015-Jun-30 01:32N 40°42' E 012°58'1514.8
2015-Jun-30 00:32N 40°43' E 012°39'1515.1
2015-Jun-29 23:34N 40°45' E 012°19'1515.4
2015-Jun-29 22:33N 40°47' E 011°59'3715.6
2015-Jun-29 20:09N 40°51' E 011°10'3115.7
2015-Jun-29 18:12N 40°54' E 010°30'1015.8
2015-Jun-29 17:33N 40°55' E 010°16'1615.8
2015-Jun-29 16:33N 40°57' E 009°55'1514.7
2015-Jun-29 15:32N 40°56' E 009°36'3 3.1
2015-Jun-29 14:32N 40°55' E 009°32'0 0.0
2015-Jun-29 13:32N 40°55' E 009°32'0 0.0
2015-Jun-29 12:29N 40°55' E 009°32'0 0.0
2015-Jun-29 11:32N 40°55' E 009°32'0 0.0
2015-Jun-29 10:32N 40°55' E 009°32'0 0.0
2015-Jun-29 09:32N 40°55' E 009°31'0 0.1
2015-Jun-29 06:23N 40°55' E 009°32'25 5.2
2015-Jun-29 01:33N 41°20' E 009°41'18 7.6
2015-Jun-28 23:14N 41°19' E 009°18'5 7.5
2015-Jun-28 22:33N 41°17' E 009°11'8 7.9
2015-Jun-28 21:33N 41°17' E 009°01'69 8.7
2015-Jun-28 13:33N 41°17' E 007°28'17011.8
2015-Jun-27 23:12N 41°16' E 003°42'913.3
2015-Jun-27 22:31N 41°16' E 003°30'1212.9
2015-Jun-27 21:33N 41°16' E 003°14'1412.6
2015-Jun-27 20:29N 41°16' E 002°56'1212.6
2015-Jun-27 19:32N 41°16' E 002°40'1212.6
2015-Jun-27 18:33N 41°16' E 002°23'11 9.6
2015-Jun-27 17:27N 41°19' E 002°10'2 2.4
2015-Jun-27 16:30N 41°22' E 002°11'0 0.0
2015-Jun-27 13:30N 41°22' E 002°11'0 0.0
2015-Jun-27 11:33N 41°22' E 002°11'0 0.0
2015-Jun-27 10:18N 41°22' E 002°11'0 0.0
2015-Jun-27 09:33N 41°22' E 002°11'0 0.0
2015-Jun-27 08:30N 41°22' E 002°11'0 0.0
2015-Jun-27 07:30N 41°22' E 002°11'0 0.1
2015-Jun-27 06:33N 41°22' E 002°11'7 7.0
2015-Jun-27 05:33N 41°17' E 002°18'1414.6
2015-Jun-27 04:33N 41°24' E 002°35'1515.3
2015-Jun-27 03:33N 41°31' E 002°53'1615.0
2015-Jun-27 02:31N 41°38' E 003°12'1515.3
2015-Jun-27 01:33N 41°45' E 003°29'1615.7
2015-Jun-27 00:33N 41°52' E 003°48'1515.1
2015-Jun-26 23:33N 41°59' E 004°06'1514.8
2015-Jun-26 22:33N 42°06' E 004°24'1414.4
2015-Jun-26 21:33N 42°13' E 004°41'1817.6
2015-Jun-26 20:33N 42°21' E 005°02'1817.8
2015-Jun-26 19:33N 42°29' E 005°23'1817.9
2015-Jun-26 18:33N 42°38' E 005°45'1818.4
2015-Jun-26 17:33N 42°46' E 006°07'1918.7
2015-Jun-26 16:33N 42°55' E 006°30'1918.6
2015-Jun-26 15:33N 43°09' E 006°46'1918.4
2015-Jun-26 14:32N 43°23' E 007°04'1818.3
2015-Jun-26 13:33N 43°38' E 007°18'4 2.0
2015-Jun-26 11:25N 43°42' E 007°19'0 0.0
2015-Jun-26 09:08N 43°42' E 007°19'0 0.0
2015-Jun-26 04:33N 43°42' E 007°19'8 8.3
2015-Jun-26 03:31N 43°39' E 007°30'1111.5
2015-Jun-26 02:33N 43°38' E 007°45'1312.7
2015-Jun-26 01:33N 43°38' E 008°03'1312.7
2015-Jun-26 00:32N 43°37' E 008°21'1313.0
2015-Jun-25 23:33N 43°36' E 008°38'1313.4
2015-Jun-25 22:33N 43°35' E 008°57'1312.9
2015-Jun-25 21:33N 43°34' E 009°14'1312.6
2015-Jun-25 20:34N 43°33' E 009°32'1312.7
2015-Jun-25 19:34N 43°33' E 009°49'1312.9
2015-Jun-25 18:33N 43°30' E 010°07'9 8.6
2015-Jun-25 17:32N 43°33' E 010°18'0 0.0
2015-Jun-25 16:32N 43°33' E 010°18'0 0.0
2015-Jun-25 15:32N 43°33' E 010°18'0 0.0
2015-Jun-25 14:32N 43°33' E 010°18'0 0.0
2015-Jun-25 13:32N 43°33' E 010°18'0 0.0
2015-Jun-25 12:32N 43°33' E 010°18'0 0.0
2015-Jun-25 11:29N 43°33' E 010°18'0 0.0
2015-Jun-25 10:32N 43°33' E 010°18'0 0.0
2015-Jun-25 09:32N 43°33' E 010°18'0 0.0
2015-Jun-25 08:32N 43°33' E 010°18'0 0.0
2015-Jun-25 07:29N 43°33' E 010°18'0 0.0
2015-Jun-25 06:32N 43°33' E 010°18'0 0.0
2015-Jun-25 05:34N 43°33' E 010°18'4 4.2
2015-Jun-25 04:34N 43°30' E 010°14'1312.8
2015-Jun-25 03:33N 43°18' E 010°09'1514.2
2015-Jun-25 02:30N 43°03' E 010°09'1314.1
2015-Jun-25 01:33N 42°51' E 010°00'  

Dump ship's entire track history